sensor_id;sensor_type;location;lat;lon;timestamp;P1;durP1;ratioP1;P2;durP2;ratioP2
6109;SDS011;3085;49.444;11.054;2022-09-23T00:01:56;10.83;;;4.10;;
6109;SDS011;3085;49.444;11.054;2022-09-23T00:04:23;8.13;;;3.13;;
6109;SDS011;3085;49.444;11.054;2022-09-23T00:06:50;7.10;;;3.67;;
6109;SDS011;3085;49.444;11.054;2022-09-23T00:09:17;6.73;;;3.13;;
6109;SDS011;3085;49.444;11.054;2022-09-23T00:11:43;7.33;;;4.07;;
6109;SDS011;3085;49.444;11.054;2022-09-23T00:14:10;20.77;;;3.70;;
6109;SDS011;3085;49.444;11.054;2022-09-23T00:16:37;7.80;;;3.93;;
6109;SDS011;3085;49.444;11.054;2022-09-23T00:19:05;12.70;;;4.13;;
6109;SDS011;3085;49.444;11.054;2022-09-23T00:21:32;6.43;;;3.77;;
6109;SDS011;3085;49.444;11.054;2022-09-23T00:23:59;6.63;;;4.33;;
6109;SDS011;3085;49.444;11.054;2022-09-23T00:26:26;8.70;;;3.70;;
6109;SDS011;3085;49.444;11.054;2022-09-23T00:28:53;5.87;;;3.80;;
6109;SDS011;3085;49.444;11.054;2022-09-23T00:31:21;8.90;;;4.60;;
6109;SDS011;3085;49.444;11.054;2022-09-23T00:33:53;6.33;;;4.10;;
6109;SDS011;3085;49.444;11.054;2022-09-23T00:36:22;11.80;;;5.00;;
6109;SDS011;3085;49.444;11.054;2022-09-23T00:38:49;5.30;;;4.00;;
6109;SDS011;3085;49.444;11.054;2022-09-23T00:41:17;7.77;;;3.60;;
6109;SDS011;3085;49.444;11.054;2022-09-23T00:43:44;5.03;;;3.50;;
6109;SDS011;3085;49.444;11.054;2022-09-23T00:46:14;6.93;;;3.60;;
6109;SDS011;3085;49.444;11.054;2022-09-23T00:48:45;6.70;;;3.80;;
6109;SDS011;3085;49.444;11.054;2022-09-23T00:51:18;8.97;;;4.80;;
6109;SDS011;3085;49.444;11.054;2022-09-23T00:53:49;5.07;;;3.10;;
6109;SDS011;3085;49.444;11.054;2022-09-23T00:56:17;6.23;;;3.37;;
6109;SDS011;3085;49.444;11.054;2022-09-23T00:58:46;6.40;;;3.73;;
6109;SDS011;3085;49.444;11.054;2022-09-23T01:01:15;7.20;;;3.77;;
6109;SDS011;3085;49.444;11.054;2022-09-23T01:03:42;8.00;;;3.90;;
6109;SDS011;3085;49.444;11.054;2022-09-23T01:06:10;11.10;;;3.10;;
6109;SDS011;3085;49.444;11.054;2022-09-23T01:08:38;7.33;;;3.03;;
6109;SDS011;3085;49.444;11.054;2022-09-23T01:11:08;4.27;;;2.60;;
6109;SDS011;3085;49.444;11.054;2022-09-23T01:13:51;3.00;;;2.10;;
6109;SDS011;3085;49.444;11.054;2022-09-23T01:16:23;3.43;;;2.70;;
6109;SDS011;3085;49.444;11.054;2022-09-23T01:18:59;5.53;;;3.43;;
6109;SDS011;3085;49.444;11.054;2022-09-23T01:21:48;3.60;;;2.17;;
6109;SDS011;3085;49.444;11.054;2022-09-23T01:24:30;3.23;;;2.40;;
6109;SDS011;3085;49.444;11.054;2022-09-23T01:27:17;4.87;;;2.67;;
6109;SDS011;3085;49.444;11.054;2022-09-23T01:32:53;3.70;;;2.43;;
6109;SDS011;3085;49.444;11.054;2022-09-23T01:35:31;3.97;;;2.90;;
6109;SDS011;3085;49.444;11.054;2022-09-23T01:38:10;8.73;;;2.80;;
6109;SDS011;3085;49.444;11.054;2022-09-23T01:40:47;5.07;;;2.63;;
6109;SDS011;3085;49.444;11.054;2022-09-23T01:43:19;6.03;;;3.30;;
6109;SDS011;3085;49.444;11.054;2022-09-23T01:45:51;5.40;;;2.70;;
6109;SDS011;3085;49.444;11.054;2022-09-23T01:48:25;5.30;;;4.17;;
6109;SDS011;3085;49.444;11.054;2022-09-23T01:50:59;3.90;;;2.63;;
6109;SDS011;3085;49.444;11.054;2022-09-23T01:53:33;9.93;;;2.80;;
6109;SDS011;3085;49.444;11.054;2022-09-23T01:56:06;6.37;;;3.20;;
6109;SDS011;3085;49.444;11.054;2022-09-23T01:58:39;19.37;;;4.30;;
6109;SDS011;3085;49.444;11.054;2022-09-23T02:01:10;7.60;;;3.17;;
6109;SDS011;3085;49.444;11.054;2022-09-23T02:03:42;5.67;;;3.53;;
6109;SDS011;3085;49.444;11.054;2022-09-23T02:06:14;10.40;;;2.57;;
6109;SDS011;3085;49.444;11.054;2022-09-23T02:08:45;10.13;;;3.77;;
6109;SDS011;3085;49.444;11.054;2022-09-23T02:11:16;6.53;;;3.20;;
6109;SDS011;3085;49.444;11.054;2022-09-23T02:13:44;5.50;;;3.73;;
6109;SDS011;3085;49.444;11.054;2022-09-23T02:16:17;10.23;;;3.47;;
6109;SDS011;3085;49.444;11.054;2022-09-23T02:18:52;5.53;;;3.37;;
6109;SDS011;3085;49.444;11.054;2022-09-23T02:21:22;4.67;;;3.00;;
6109;SDS011;3085;49.444;11.054;2022-09-23T02:23:54;6.17;;;3.33;;
6109;SDS011;3085;49.444;11.054;2022-09-23T02:26:27;8.10;;;3.40;;
6109;SDS011;3085;49.444;11.054;2022-09-23T02:29:00;8.43;;;3.60;;
6109;SDS011;3085;49.444;11.054;2022-09-23T02:31:35;6.23;;;3.20;;
6109;SDS011;3085;49.444;11.054;2022-09-23T02:34:18;6.63;;;3.40;;
6109;SDS011;3085;49.444;11.054;2022-09-23T02:36:50;7.03;;;3.07;;
6109;SDS011;3085;49.444;11.054;2022-09-23T02:39:25;9.10;;;3.60;;
6109;SDS011;3085;49.444;11.054;2022-09-23T02:42:00;4.80;;;3.13;;
6109;SDS011;3085;49.444;11.054;2022-09-23T02:44:31;4.70;;;3.43;;
6109;SDS011;3085;49.444;11.054;2022-09-23T02:46:59;19.03;;;3.73;;
6109;SDS011;3085;49.444;11.054;2022-09-23T02:49:27;8.40;;;3.23;;
6109;SDS011;3085;49.444;11.054;2022-09-23T02:51:56;9.47;;;2.83;;
6109;SDS011;3085;49.444;11.054;2022-09-23T02:54:29;5.20;;;3.43;;
6109;SDS011;3085;49.444;11.054;2022-09-23T02:56:58;7.33;;;2.83;;
6109;SDS011;3085;49.444;11.054;2022-09-23T02:59:26;5.00;;;3.13;;
6109;SDS011;3085;49.444;11.054;2022-09-23T03:04:56;7.57;;;3.40;;
6109;SDS011;3085;49.444;11.054;2022-09-23T03:07:32;5.97;;;4.00;;
6109;SDS011;3085;49.444;11.054;2022-09-23T03:10:09;11.70;;;3.70;;
6109;SDS011;3085;49.444;11.054;2022-09-23T03:12:45;4.20;;;3.30;;
6109;SDS011;3085;49.444;11.054;2022-09-23T03:15:20;6.00;;;3.03;;
6109;SDS011;3085;49.444;11.054;2022-09-23T03:17:51;6.50;;;3.33;;
6109;SDS011;3085;49.444;11.054;2022-09-23T03:20:27;9.40;;;3.70;;
6109;SDS011;3085;49.444;11.054;2022-09-23T03:23:00;6.30;;;4.00;;
6109;SDS011;3085;49.444;11.054;2022-09-23T03:25:31;6.47;;;3.43;;
6109;SDS011;3085;49.444;11.054;2022-09-23T03:28:01;5.17;;;3.47;;
6109;SDS011;3085;49.444;11.054;2022-09-23T03:30:29;6.53;;;3.93;;
6109;SDS011;3085;49.444;11.054;2022-09-23T03:32:59;9.33;;;4.40;;
6109;SDS011;3085;49.444;11.054;2022-09-23T03:35:30;9.87;;;4.13;;
6109;SDS011;3085;49.444;11.054;2022-09-23T03:38:19;6.70;;;3.40;;
6109;SDS011;3085;49.444;11.054;2022-09-23T03:40:50;6.10;;;3.47;;
6109;SDS011;3085;49.444;11.054;2022-09-23T03:43:21;9.20;;;4.30;;
6109;SDS011;3085;49.444;11.054;2022-09-23T03:45:48;6.87;;;3.30;;
6109;SDS011;3085;49.444;11.054;2022-09-23T03:48:20;6.70;;;3.17;;
6109;SDS011;3085;49.444;11.054;2022-09-23T03:50:49;8.33;;;4.07;;
6109;SDS011;3085;49.444;11.054;2022-09-23T03:53:16;6.67;;;3.77;;
6109;SDS011;3085;49.444;11.054;2022-09-23T03:55:45;5.00;;;3.90;;
6109;SDS011;3085;49.444;11.054;2022-09-23T03:58:12;4.67;;;3.33;;
6109;SDS011;3085;49.444;11.054;2022-09-23T04:00:39;6.83;;;3.60;;
6109;SDS011;3085;49.444;11.054;2022-09-23T04:03:07;5.87;;;3.60;;
6109;SDS011;3085;49.444;11.054;2022-09-23T04:05:34;6.47;;;3.40;;
6109;SDS011;3085;49.444;11.054;2022-09-23T04:08:02;7.03;;;3.80;;
6109;SDS011;3085;49.444;11.054;2022-09-23T04:10:29;7.13;;;4.20;;
6109;SDS011;3085;49.444;11.054;2022-09-23T04:12:56;5.63;;;3.63;;
6109;SDS011;3085;49.444;11.054;2022-09-23T04:15:23;5.50;;;3.57;;
6109;SDS011;3085;49.444;11.054;2022-09-23T04:17:49;7.00;;;3.77;;
6109;SDS011;3085;49.444;11.054;2022-09-23T04:20:16;8.50;;;4.00;;
6109;SDS011;3085;49.444;11.054;2022-09-23T04:22:44;12.53;;;4.50;;
6109;SDS011;3085;49.444;11.054;2022-09-23T04:25:12;9.30;;;5.03;;
6109;SDS011;3085;49.444;11.054;2022-09-23T04:27:39;9.03;;;5.50;;
6109;SDS011;3085;49.444;11.054;2022-09-23T04:30:06;10.17;;;4.30;;
6109;SDS011;3085;49.444;11.054;2022-09-23T04:32:34;7.30;;;4.20;;
6109;SDS011;3085;49.444;11.054;2022-09-23T04:35:01;6.47;;;3.83;;
6109;SDS011;3085;49.444;11.054;2022-09-23T04:37:28;9.67;;;4.70;;
6109;SDS011;3085;49.444;11.054;2022-09-23T04:39:55;8.17;;;3.60;;
6109;SDS011;3085;49.444;11.054;2022-09-23T04:42:23;4.43;;;3.63;;
6109;SDS011;3085;49.444;11.054;2022-09-23T04:44:53;6.57;;;3.60;;
6109;SDS011;3085;49.444;11.054;2022-09-23T04:47:20;6.80;;;4.03;;
6109;SDS011;3085;49.444;11.054;2022-09-23T04:49:47;8.23;;;3.80;;
6109;SDS011;3085;49.444;11.054;2022-09-23T04:52:13;8.10;;;4.20;;
6109;SDS011;3085;49.444;11.054;2022-09-23T04:54:40;10.73;;;3.53;;
6109;SDS011;3085;49.444;11.054;2022-09-23T04:57:07;8.47;;;3.93;;
6109;SDS011;3085;49.444;11.054;2022-09-23T04:59:36;6.67;;;3.70;;
6109;SDS011;3085;49.444;11.054;2022-09-23T05:02:03;6.83;;;4.27;;
6109;SDS011;3085;49.444;11.054;2022-09-23T05:04:30;7.33;;;4.00;;
6109;SDS011;3085;49.444;11.054;2022-09-23T05:06:57;6.40;;;4.23;;
6109;SDS011;3085;49.444;11.054;2022-09-23T05:09:24;16.60;;;4.20;;
6109;SDS011;3085;49.444;11.054;2022-09-23T05:11:51;7.30;;;3.77;;
6109;SDS011;3085;49.444;11.054;2022-09-23T05:14:18;11.40;;;4.37;;
6109;SDS011;3085;49.444;11.054;2022-09-23T05:16:46;6.07;;;4.20;;
6109;SDS011;3085;49.444;11.054;2022-09-23T05:19:13;7.17;;;4.27;;
6109;SDS011;3085;49.444;11.054;2022-09-23T05:21:40;7.33;;;3.73;;
6109;SDS011;3085;49.444;11.054;2022-09-23T05:24:07;9.40;;;4.80;;
6109;SDS011;3085;49.444;11.054;2022-09-23T05:26:34;7.20;;;4.30;;
6109;SDS011;3085;49.444;11.054;2022-09-23T05:29:02;6.40;;;4.20;;
6109;SDS011;3085;49.444;11.054;2022-09-23T05:31:29;9.07;;;4.33;;
6109;SDS011;3085;49.444;11.054;2022-09-23T05:33:58;5.60;;;4.33;;
6109;SDS011;3085;49.444;11.054;2022-09-23T05:36:27;11.90;;;4.50;;
6109;SDS011;3085;49.444;11.054;2022-09-23T05:38:54;9.70;;;4.10;;
6109;SDS011;3085;49.444;11.054;2022-09-23T05:41:23;8.43;;;4.67;;
6109;SDS011;3085;49.444;11.054;2022-09-23T05:43:50;10.43;;;3.80;;
6109;SDS011;3085;49.444;11.054;2022-09-23T05:46:19;9.40;;;5.00;;
6109;SDS011;3085;49.444;11.054;2022-09-23T05:48:47;7.80;;;5.20;;
6109;SDS011;3085;49.444;11.054;2022-09-23T05:51:16;7.30;;;3.80;;
6109;SDS011;3085;49.444;11.054;2022-09-23T05:53:44;7.93;;;4.40;;
6109;SDS011;3085;49.444;11.054;2022-09-23T05:56:12;8.27;;;4.40;;
6109;SDS011;3085;49.444;11.054;2022-09-23T05:58:40;13.43;;;4.43;;
6109;SDS011;3085;49.444;11.054;2022-09-23T06:01:08;10.43;;;5.43;;
6109;SDS011;3085;49.444;11.054;2022-09-23T06:03:35;9.70;;;4.50;;
6109;SDS011;3085;49.444;11.054;2022-09-23T06:06:03;13.20;;;5.00;;
6109;SDS011;3085;49.444;11.054;2022-09-23T06:08:31;5.63;;;3.80;;
6109;SDS011;3085;49.444;11.054;2022-09-23T06:11:02;11.53;;;6.20;;
6109;SDS011;3085;49.444;11.054;2022-09-23T06:13:33;10.70;;;5.13;;
6109;SDS011;3085;49.444;11.054;2022-09-23T06:16:02;16.40;;;5.70;;
6109;SDS011;3085;49.444;11.054;2022-09-23T06:18:29;7.20;;;4.53;;
6109;SDS011;3085;49.444;11.054;2022-09-23T06:20:58;13.27;;;4.60;;
6109;SDS011;3085;49.444;11.054;2022-09-23T06:23:26;8.03;;;4.57;;
6109;SDS011;3085;49.444;11.054;2022-09-23T06:25:58;5.57;;;3.80;;
6109;SDS011;3085;49.444;11.054;2022-09-23T06:28:27;13.53;;;4.17;;
6109;SDS011;3085;49.444;11.054;2022-09-23T06:30:56;5.10;;;3.63;;
6109;SDS011;3085;49.444;11.054;2022-09-23T06:33:23;7.77;;;4.00;;
6109;SDS011;3085;49.444;11.054;2022-09-23T06:35:53;12.73;;;5.77;;
6109;SDS011;3085;49.444;11.054;2022-09-23T06:38:22;12.23;;;4.67;;
6109;SDS011;3085;49.444;11.054;2022-09-23T06:40:49;10.60;;;4.77;;
6109;SDS011;3085;49.444;11.054;2022-09-23T06:43:18;16.03;;;4.10;;
6109;SDS011;3085;49.444;11.054;2022-09-23T06:45:45;11.10;;;4.90;;
6109;SDS011;3085;49.444;11.054;2022-09-23T06:48:12;13.73;;;5.20;;
6109;SDS011;3085;49.444;11.054;2022-09-23T06:50:39;8.37;;;3.67;;
6109;SDS011;3085;49.444;11.054;2022-09-23T06:53:05;9.47;;;4.47;;
6109;SDS011;3085;49.444;11.054;2022-09-23T06:55:32;12.13;;;5.07;;
6109;SDS011;3085;49.444;11.054;2022-09-23T06:57:59;13.53;;;4.63;;
6109;SDS011;3085;49.444;11.054;2022-09-23T07:00:27;7.03;;;3.97;;
6109;SDS011;3085;49.444;11.054;2022-09-23T07:02:54;6.07;;;3.53;;
6109;SDS011;3085;49.444;11.054;2022-09-23T07:05:21;9.30;;;4.57;;
6109;SDS011;3085;49.444;11.054;2022-09-23T07:07:48;10.10;;;3.83;;
6109;SDS011;3085;49.444;11.054;2022-09-23T07:10:15;7.50;;;4.00;;
6109;SDS011;3085;49.444;11.054;2022-09-23T07:12:41;12.67;;;3.93;;
6109;SDS011;3085;49.444;11.054;2022-09-23T07:15:09;8.00;;;4.47;;
6109;SDS011;3085;49.444;11.054;2022-09-23T07:17:39;9.13;;;4.53;;
6109;SDS011;3085;49.444;11.054;2022-09-23T07:20:07;6.03;;;4.50;;
6109;SDS011;3085;49.444;11.054;2022-09-23T07:22:35;6.13;;;4.10;;
6109;SDS011;3085;49.444;11.054;2022-09-23T07:25:02;7.60;;;3.43;;
6109;SDS011;3085;49.444;11.054;2022-09-23T07:27:30;11.57;;;4.63;;
6109;SDS011;3085;49.444;11.054;2022-09-23T07:29:57;7.10;;;4.37;;
6109;SDS011;3085;49.444;11.054;2022-09-23T07:32:24;21.70;;;4.03;;
6109;SDS011;3085;49.444;11.054;2022-09-23T07:34:52;5.87;;;4.13;;
6109;SDS011;3085;49.444;11.054;2022-09-23T07:37:20;5.53;;;3.80;;
6109;SDS011;3085;49.444;11.054;2022-09-23T07:39:47;7.90;;;4.80;;
6109;SDS011;3085;49.444;11.054;2022-09-23T07:42:15;7.33;;;4.10;;
6109;SDS011;3085;49.444;11.054;2022-09-23T07:44:42;6.20;;;3.90;;
6109;SDS011;3085;49.444;11.054;2022-09-23T07:47:11;6.30;;;3.97;;
6109;SDS011;3085;49.444;11.054;2022-09-23T07:49:38;8.90;;;4.20;;
6109;SDS011;3085;49.444;11.054;2022-09-23T07:52:07;9.03;;;4.10;;
6109;SDS011;3085;49.444;11.054;2022-09-23T07:54:38;7.80;;;3.63;;
6109;SDS011;3085;49.444;11.054;2022-09-23T07:57:04;10.00;;;4.03;;
6109;SDS011;3085;49.444;11.054;2022-09-23T07:59:31;7.10;;;3.73;;
6109;SDS011;3085;49.444;11.054;2022-09-23T08:01:58;7.60;;;3.60;;
6109;SDS011;3085;49.444;11.054;2022-09-23T08:04:26;15.63;;;4.10;;
6109;SDS011;3085;49.444;11.054;2022-09-23T08:06:55;10.70;;;3.57;;
6109;SDS011;3085;49.444;11.054;2022-09-23T08:09:25;8.33;;;3.90;;
6109;SDS011;3085;49.444;11.054;2022-09-23T08:11:53;6.50;;;3.13;;
6109;SDS011;3085;49.444;11.054;2022-09-23T08:14:20;6.40;;;3.80;;
6109;SDS011;3085;49.444;11.054;2022-09-23T08:16:47;6.63;;;4.20;;
6109;SDS011;3085;49.444;11.054;2022-09-23T08:19:14;6.97;;;4.10;;
6109;SDS011;3085;49.444;11.054;2022-09-23T08:21:41;9.07;;;3.10;;
6109;SDS011;3085;49.444;11.054;2022-09-23T08:24:12;7.90;;;3.33;;
6109;SDS011;3085;49.444;11.054;2022-09-23T08:26:41;5.00;;;3.13;;
6109;SDS011;3085;49.444;11.054;2022-09-23T08:29:10;4.10;;;3.00;;
6109;SDS011;3085;49.444;11.054;2022-09-23T08:31:38;4.20;;;2.97;;
6109;SDS011;3085;49.444;11.054;2022-09-23T08:34:05;5.87;;;3.40;;
6109;SDS011;3085;49.444;11.054;2022-09-23T08:36:32;17.00;;;7.43;;
6109;SDS011;3085;49.444;11.054;2022-09-23T08:39:00;12.00;;;5.47;;
6109;SDS011;3085;49.444;11.054;2022-09-23T08:41:29;4.97;;;3.60;;
6109;SDS011;3085;49.444;11.054;2022-09-23T08:44:07;5.63;;;3.17;;
6109;SDS011;3085;49.444;11.054;2022-09-23T08:46:39;5.77;;;3.37;;
6109;SDS011;3085;49.444;11.054;2022-09-23T08:49:10;3.73;;;2.53;;
6109;SDS011;3085;49.444;11.054;2022-09-23T08:51:43;4.10;;;2.23;;
6109;SDS011;3085;49.444;11.054;2022-09-23T08:54:12;6.23;;;2.90;;
6109;SDS011;3085;49.444;11.054;2022-09-23T08:56:41;6.60;;;2.90;;
6109;SDS011;3085;49.444;11.054;2022-09-23T08:59:16;7.97;;;3.10;;
6109;SDS011;3085;49.444;11.054;2022-09-23T09:01:50;2.97;;;2.27;;
6109;SDS011;3085;49.444;11.054;2022-09-23T09:04:20;4.93;;;2.47;;
6109;SDS011;3085;49.444;11.054;2022-09-23T09:06:51;5.17;;;2.90;;
6109;SDS011;3085;49.444;11.054;2022-09-23T09:09:24;15.10;;;5.27;;
6109;SDS011;3085;49.444;11.054;2022-09-23T09:11:56;8.27;;;2.60;;
6109;SDS011;3085;49.444;11.054;2022-09-23T09:14:31;4.50;;;2.67;;
6109;SDS011;3085;49.444;11.054;2022-09-23T09:17:03;4.60;;;2.47;;
6109;SDS011;3085;49.444;11.054;2022-09-23T09:19:47;5.40;;;2.57;;
6109;SDS011;3085;49.444;11.054;2022-09-23T09:22:21;3.83;;;1.57;;
6109;SDS011;3085;49.444;11.054;2022-09-23T09:25:04;3.40;;;2.13;;
6109;SDS011;3085;49.444;11.054;2022-09-23T09:27:42;3.50;;;2.07;;
6109;SDS011;3085;49.444;11.054;2022-09-23T09:30:12;3.87;;;2.20;;
6109;SDS011;3085;49.444;11.054;2022-09-23T09:32:41;2.73;;;1.67;;
6109;SDS011;3085;49.444;11.054;2022-09-23T09:35:16;3.60;;;2.10;;
6109;SDS011;3085;49.444;11.054;2022-09-23T09:37:55;4.37;;;1.67;;
6109;SDS011;3085;49.444;11.054;2022-09-23T09:40:28;1.97;;;1.53;;
6109;SDS011;3085;49.444;11.054;2022-09-23T09:42:55;2.03;;;1.80;;
6109;SDS011;3085;49.444;11.054;2022-09-23T09:45:28;2.20;;;1.50;;
6109;SDS011;3085;49.444;11.054;2022-09-23T09:48:13;6.10;;;1.97;;
6109;SDS011;3085;49.444;11.054;2022-09-23T09:50:47;2.00;;;1.50;;
6109;SDS011;3085;49.444;11.054;2022-09-23T09:53:19;3.20;;;1.80;;
6109;SDS011;3085;49.444;11.054;2022-09-23T09:55:55;4.03;;;2.10;;
6109;SDS011;3085;49.444;11.054;2022-09-23T09:58:25;2.50;;;1.80;;
6109;SDS011;3085;49.444;11.054;2022-09-23T10:00:56;2.73;;;1.50;;
6109;SDS011;3085;49.444;11.054;2022-09-23T10:03:25;2.17;;;1.53;;
6109;SDS011;3085;49.444;11.054;2022-09-23T10:05:59;3.13;;;1.97;;
6109;SDS011;3085;49.444;11.054;2022-09-23T10:08:37;2.40;;;1.53;;
6109;SDS011;3085;49.444;11.054;2022-09-23T10:11:04;2.10;;;1.60;;
6109;SDS011;3085;49.444;11.054;2022-09-23T10:13:39;2.50;;;1.60;;
6109;SDS011;3085;49.444;11.054;2022-09-23T10:16:07;2.20;;;1.43;;
6109;SDS011;3085;49.444;11.054;2022-09-23T10:18:35;2.27;;;1.30;;
6109;SDS011;3085;49.444;11.054;2022-09-23T10:21:05;2.90;;;1.80;;
6109;SDS011;3085;49.444;11.054;2022-09-23T10:23:36;1.40;;;1.17;;
6109;SDS011;3085;49.444;11.054;2022-09-23T10:26:08;2.13;;;1.50;;
6109;SDS011;3085;49.444;11.054;2022-09-23T10:28:40;1.70;;;1.27;;
6109;SDS011;3085;49.444;11.054;2022-09-23T10:31:12;2.07;;;1.43;;
6109;SDS011;3085;49.444;11.054;2022-09-23T10:33:45;2.83;;;1.70;;
6109;SDS011;3085;49.444;11.054;2022-09-23T10:36:14;2.47;;;1.53;;
6109;SDS011;3085;49.444;11.054;2022-09-23T10:38:42;2.60;;;1.50;;
6109;SDS011;3085;49.444;11.054;2022-09-23T10:41:15;3.90;;;2.00;;
6109;SDS011;3085;49.444;11.054;2022-09-23T10:44:10;3.73;;;1.60;;
6109;SDS011;3085;49.444;11.054;2022-09-23T10:47:14;2.70;;;1.60;;
6109;SDS011;3085;49.444;11.054;2022-09-23T10:50:05;2.23;;;1.70;;
6109;SDS011;3085;49.444;11.054;2022-09-23T10:52:45;2.43;;;1.40;;
6109;SDS011;3085;49.444;11.054;2022-09-23T10:58:39;1.70;;;1.30;;
6109;SDS011;3085;49.444;11.054;2022-09-23T11:01:39;4.90;;;2.10;;
6109;SDS011;3085;49.444;11.054;2022-09-23T11:04:29;1.90;;;1.50;;
6109;SDS011;3085;49.444;11.054;2022-09-23T11:07:20;2.13;;;1.67;;
6109;SDS011;3085;49.444;11.054;2022-09-23T11:10:05;3.60;;;1.90;;
6109;SDS011;3085;49.444;11.054;2022-09-23T11:12:49;2.10;;;1.57;;
6109;SDS011;3085;49.444;11.054;2022-09-23T11:15:26;3.37;;;1.77;;
6109;SDS011;3085;49.444;11.054;2022-09-23T11:21:01;2.33;;;1.40;;
6109;SDS011;3085;49.444;11.054;2022-09-23T11:23:43;2.33;;;1.50;;
6109;SDS011;3085;49.444;11.054;2022-09-23T11:26:28;3.70;;;1.80;;
6109;SDS011;3085;49.444;11.054;2022-09-23T11:29:14;4.83;;;2.33;;
6109;SDS011;3085;49.444;11.054;2022-09-23T11:32:01;4.13;;;1.60;;
6109;SDS011;3085;49.444;11.054;2022-09-23T11:34:54;3.20;;;1.63;;
6109;SDS011;3085;49.444;11.054;2022-09-23T11:37:31;1.70;;;1.20;;
6109;SDS011;3085;49.444;11.054;2022-09-23T11:40:03;2.23;;;1.60;;
6109;SDS011;3085;49.444;11.054;2022-09-23T11:42:49;3.83;;;1.60;;
6109;SDS011;3085;49.444;11.054;2022-09-23T11:45:23;2.13;;;1.40;;
6109;SDS011;3085;49.444;11.054;2022-09-23T11:47:56;1.90;;;1.60;;
6109;SDS011;3085;49.444;11.054;2022-09-23T11:50:26;4.30;;;1.67;;
6109;SDS011;3085;49.444;11.054;2022-09-23T11:53:01;8.90;;;4.10;;
6109;SDS011;3085;49.444;11.054;2022-09-23T11:55:33;4.70;;;2.73;;
6109;SDS011;3085;49.444;11.054;2022-09-23T11:58:07;1.60;;;1.20;;
6109;SDS011;3085;49.444;11.054;2022-09-23T12:00:40;2.17;;;1.50;;
6109;SDS011;3085;49.444;11.054;2022-09-23T12:03:14;1.50;;;1.20;;
6109;SDS011;3085;49.444;11.054;2022-09-23T12:05:49;3.90;;;1.70;;
6109;SDS011;3085;49.444;11.054;2022-09-23T12:08:26;2.30;;;1.50;;
6109;SDS011;3085;49.444;11.054;2022-09-23T12:10:56;3.07;;;1.73;;
6109;SDS011;3085;49.444;11.054;2022-09-23T12:13:31;2.10;;;1.60;;
6109;SDS011;3085;49.444;11.054;2022-09-23T12:16:14;2.40;;;1.60;;
6109;SDS011;3085;49.444;11.054;2022-09-23T12:19:01;2.53;;;1.43;;
6109;SDS011;3085;49.444;11.054;2022-09-23T12:21:42;2.03;;;1.17;;
6109;SDS011;3085;49.444;11.054;2022-09-23T12:24:25;1.83;;;1.30;;
6109;SDS011;3085;49.444;11.054;2022-09-23T12:27:05;2.60;;;1.60;;
6109;SDS011;3085;49.444;11.054;2022-09-23T12:29:36;2.23;;;1.37;;
6109;SDS011;3085;49.444;11.054;2022-09-23T12:32:04;2.13;;;1.30;;
6109;SDS011;3085;49.444;11.054;2022-09-23T12:34:36;4.40;;;1.70;;
6109;SDS011;3085;49.444;11.054;2022-09-23T12:37:13;3.30;;;2.57;;
6109;SDS011;3085;49.444;11.054;2022-09-23T12:39:51;2.30;;;1.53;;
6109;SDS011;3085;49.444;11.054;2022-09-23T12:44:47;1.73;;;1.20;;
6109;SDS011;3085;49.444;11.054;2022-09-23T12:47:35;3.53;;;1.67;;
6109;SDS011;3085;49.444;11.054;2022-09-23T12:56:20;4.23;;;1.80;;
6109;SDS011;3085;49.444;11.054;2022-09-23T12:58:58;3.27;;;1.97;;
6109;SDS011;3085;49.444;11.054;2022-09-23T13:01:27;3.23;;;1.20;;
6109;SDS011;3085;49.444;11.054;2022-09-23T13:04:02;2.60;;;1.40;;
6109;SDS011;3085;49.444;11.054;2022-09-23T13:06:50;2.13;;;1.47;;
6109;SDS011;3085;49.444;11.054;2022-09-23T13:09:23;1.90;;;1.20;;
6109;SDS011;3085;49.444;11.054;2022-09-23T13:11:56;1.57;;;1.10;;
6109;SDS011;3085;49.444;11.054;2022-09-23T13:14:25;3.40;;;1.53;;
6109;SDS011;3085;49.444;11.054;2022-09-23T13:16:54;2.70;;;1.50;;
6109;SDS011;3085;49.444;11.054;2022-09-23T13:22:09;2.27;;;1.40;;
6109;SDS011;3085;49.444;11.054;2022-09-23T13:24:38;4.13;;;1.60;;
6109;SDS011;3085;49.444;11.054;2022-09-23T13:27:12;3.50;;;1.73;;
6109;SDS011;3085;49.444;11.054;2022-09-23T13:29:43;4.50;;;1.83;;
6109;SDS011;3085;49.444;11.054;2022-09-23T13:32:15;2.23;;;1.40;;
6109;SDS011;3085;49.444;11.054;2022-09-23T13:34:45;2.33;;;1.27;;
6109;SDS011;3085;49.444;11.054;2022-09-23T13:37:20;3.80;;;2.13;;
6109;SDS011;3085;49.444;11.054;2022-09-23T13:39:49;2.93;;;2.00;;
6109;SDS011;3085;49.444;11.054;2022-09-23T13:42:19;2.10;;;1.40;;
6109;SDS011;3085;49.444;11.054;2022-09-23T13:44:52;1.83;;;1.40;;
6109;SDS011;3085;49.444;11.054;2022-09-23T13:47:21;2.47;;;1.50;;
6109;SDS011;3085;49.444;11.054;2022-09-23T13:49:50;2.13;;;1.63;;
6109;SDS011;3085;49.444;11.054;2022-09-23T13:52:21;8.33;;;1.90;;
6109;SDS011;3085;49.444;11.054;2022-09-23T13:54:51;3.20;;;1.63;;
6109;SDS011;3085;49.444;11.054;2022-09-23T13:57:26;1.97;;;1.47;;
6109;SDS011;3085;49.444;11.054;2022-09-23T13:59:58;1.77;;;1.30;;
6109;SDS011;3085;49.444;11.054;2022-09-23T14:02:26;2.90;;;1.47;;
6109;SDS011;3085;49.444;11.054;2022-09-23T14:04:54;2.87;;;1.80;;
6109;SDS011;3085;49.444;11.054;2022-09-23T14:07:22;1.83;;;1.40;;
6109;SDS011;3085;49.444;11.054;2022-09-23T14:09:50;5.80;;;1.70;;
6109;SDS011;3085;49.444;11.054;2022-09-23T14:12:19;2.70;;;2.00;;
6109;SDS011;3085;49.444;11.054;2022-09-23T14:14:48;3.07;;;1.53;;
6109;SDS011;3085;49.444;11.054;2022-09-23T14:17:17;1.97;;;1.10;;
6109;SDS011;3085;49.444;11.054;2022-09-23T14:19:47;2.07;;;1.53;;
6109;SDS011;3085;49.444;11.054;2022-09-23T14:22:22;4.57;;;1.43;;
6109;SDS011;3085;49.444;11.054;2022-09-23T14:24:50;1.50;;;1.40;;
6109;SDS011;3085;49.444;11.054;2022-09-23T14:27:19;2.50;;;1.43;;
6109;SDS011;3085;49.444;11.054;2022-09-23T14:29:53;4.10;;;1.57;;
6109;SDS011;3085;49.444;11.054;2022-09-23T14:32:25;1.80;;;1.33;;
6109;SDS011;3085;49.444;11.054;2022-09-23T14:35:03;3.80;;;1.57;;
6109;SDS011;3085;49.444;11.054;2022-09-23T14:37:37;2.20;;;1.70;;
6109;SDS011;3085;49.444;11.054;2022-09-23T14:40:25;3.23;;;2.10;;
6109;SDS011;3085;49.444;11.054;2022-09-23T14:42:56;3.23;;;1.80;;
6109;SDS011;3085;49.444;11.054;2022-09-23T14:45:26;3.03;;;1.83;;
6109;SDS011;3085;49.444;11.054;2022-09-23T14:47:57;2.60;;;1.47;;
6109;SDS011;3085;49.444;11.054;2022-09-23T14:50:26;1.60;;;1.40;;
6109;SDS011;3085;49.444;11.054;2022-09-23T14:56:14;2.40;;;1.60;;
6109;SDS011;3085;49.444;11.054;2022-09-23T14:58:45;2.40;;;1.23;;
6109;SDS011;3085;49.444;11.054;2022-09-23T15:04:11;1.70;;;1.37;;
6109;SDS011;3085;49.444;11.054;2022-09-23T15:06:42;3.10;;;1.70;;
6109;SDS011;3085;49.444;11.054;2022-09-23T15:09:15;2.73;;;1.97;;
6109;SDS011;3085;49.444;11.054;2022-09-23T15:11:45;1.80;;;1.40;;
6109;SDS011;3085;49.444;11.054;2022-09-23T15:14:12;1.60;;;1.20;;
6109;SDS011;3085;49.444;11.054;2022-09-23T15:16:41;4.03;;;1.67;;
6109;SDS011;3085;49.444;11.054;2022-09-23T15:19:11;2.90;;;1.47;;
6109;SDS011;3085;49.444;11.054;2022-09-23T15:21:44;7.03;;;2.20;;
6109;SDS011;3085;49.444;11.054;2022-09-23T15:26:59;1.60;;;1.37;;
6109;SDS011;3085;49.444;11.054;2022-09-23T15:29:26;2.77;;;1.80;;
6109;SDS011;3085;49.444;11.054;2022-09-23T15:31:54;4.10;;;1.63;;
6109;SDS011;3085;49.444;11.054;2022-09-23T15:34:21;3.23;;;1.40;;
6109;SDS011;3085;49.444;11.054;2022-09-23T15:36:48;1.60;;;1.30;;
6109;SDS011;3085;49.444;11.054;2022-09-23T15:39:15;2.03;;;1.40;;
6109;SDS011;3085;49.444;11.054;2022-09-23T15:41:42;3.50;;;1.70;;
6109;SDS011;3085;49.444;11.054;2022-09-23T15:44:10;2.20;;;1.60;;
6109;SDS011;3085;49.444;11.054;2022-09-23T15:46:39;2.40;;;1.60;;
6109;SDS011;3085;49.444;11.054;2022-09-23T15:49:16;3.60;;;1.70;;
6109;SDS011;3085;49.444;11.054;2022-09-23T15:51:48;2.97;;;1.97;;
6109;SDS011;3085;49.444;11.054;2022-09-23T15:54:16;3.33;;;1.30;;
6109;SDS011;3085;49.444;11.054;2022-09-23T15:56:44;3.83;;;2.13;;
6109;SDS011;3085;49.444;11.054;2022-09-23T15:59:11;2.27;;;1.70;;